Time;durP1;ratioP1;P1;durP2;ratioP2;P2;SDS_P1;SDS_P2;PMS_P1;PMS_P2;Temp;Humidity;BMP_temperature;BMP_pressure;BME280_temperature;BME280_humidity;BME280_pressure;Samples;Min_cycle;Max_cycle;Signal;HPM_P1;HPM_P2
2022/03/17 00:00:11;;;;;;;22.30;9.80;;;;;;;10.14;67.50;99791.94;5114896;28;20178;-88
2022/03/17 00:02:37;;;;;;;20.70;8.93;;;;;;;10.16;67.61;99797.13;5114767;28;20663;-88
2022/03/17 00:05:05;;;;;;;20.70;9.93;;;;;;;10.14;67.84;99796.34;5114785;28;20239;-88
2022/03/17 00:07:31;;;;;;;22.43;10.27;;;;;;;10.15;67.82;99798.03;5115292;28;20170;-89
2022/03/17 00:09:57;;;;;;;18.83;10.07;;;;;;;10.10;67.75;99792.09;5096790;28;20325;-88
2022/03/17 00:12:23;;;;;;;20.23;10.27;;;;;;;10.05;68.08;99794.06;5114660;28;20183;-89
2022/03/17 00:14:51;;;;;;;20.70;10.03;;;;;;;10.06;68.11;99793.16;5114891;28;20186;-89
2022/03/17 00:17:16;;;;;;;17.57;9.50;;;;;;;10.02;68.50;99800.25;5114564;28;20180;-88
2022/03/17 00:19:42;;;;;;;30.47;10.60;;;;;;;9.98;68.65;99796.06;5114483;28;20189;-89
2022/03/17 00:22:08;;;;;;;19.63;10.80;;;;;;;9.97;68.73;99798.75;5114563;28;20260;-89
2022/03/17 00:24:35;;;;;;;22.83;9.30;;;;;;;9.92;68.30;99798.94;5114746;28;20236;-90
2022/03/17 00:27:02;;;;;;;21.83;9.77;;;;;;;9.91;68.80;99797.22;5114375;28;20521;-90
2022/03/17 00:29:28;;;;;;;19.63;10.23;;;;;;;9.95;68.73;99797.97;5096384;28;20239;-89
2022/03/17 00:31:55;;;;;;;18.13;9.40;;;;;;;9.84;69.38;99801.00;5114575;28;20190;-91
2022/03/17 00:34:21;;;;;;;24.77;11.67;;;;;;;9.72;69.56;99796.25;5114358;28;20628;-90
2022/03/17 00:36:47;;;;;;;21.97;10.10;;;;;;;9.69;69.89;99802.44;5114669;28;20178;-90
2022/03/17 00:39:14;;;;;;;20.80;11.43;;;;;;;9.67;70.00;99803.44;5096307;28;20189;-90
2022/03/17 00:41:40;;;;;;;24.97;10.27;;;;;;;9.71;69.65;99805.00;5114240;28;20208;-90
2022/03/17 00:44:06;;;;;;;21.07;10.60;;;;;;;9.77;69.73;99804.78;5114622;28;20228;-89
2022/03/17 00:46:31;;;;;;;28.97;9.97;;;;;;;9.75;69.46;99801.34;5096114;28;20699;-90
2022/03/17 00:48:57;;;;;;;17.60;9.20;;;;;;;9.74;69.48;99804.88;5096394;28;20194;-89
2022/03/17 00:51:22;;;;;;;29.90;12.30;;;;;;;9.75;69.71;99801.34;5114002;28;20201;-89
2022/03/17 00:53:48;;;;;;;22.00;9.67;;;;;;;9.69;70.21;99806.81;5114044;28;20193;-90
2022/03/17 00:56:15;;;;;;;21.33;10.37;;;;;;;9.53;71.01;99818.78;5113913;28;20541;-89
2022/03/17 00:58:45;;;;;;;23.53;11.77;;;;;;;9.47;70.89;99825.09;5113480;28;20172;-90
2022/03/17 01:01:11;;;;;;;22.20;11.73;;;;;;;9.41;71.63;99822.69;5114478;28;20529;-89
2022/03/17 01:03:37;;;;;;;24.03;12.40;;;;;;;9.43;71.54;99818.28;5113769;28;20260;-89
2022/03/17 01:06:02;;;;;;;25.03;12.43;;;;;;;9.38;71.48;99827.22;5113897;28;20172;-90
2022/03/17 01:08:28;;;;;;;25.77;11.53;;;;;;;9.21;72.48;99841.75;5114108;28;20259;-90
2022/03/17 01:10:54;;;;;;;25.97;12.60;;;;;;;9.13;72.91;99832.47;5114044;28;20190;-90
2022/03/17 01:13:20;;;;;;;29.67;13.43;;;;;;;9.00;73.93;99836.41;5113650;28;20697;-90
2022/03/17 01:15:45;;;;;;;26.27;12.10;;;;;;;9.02;73.79;99835.44;5114047;28;20644;-90
2022/03/17 01:18:11;;;;;;;23.10;11.63;;;;;;;8.93;74.37;99845.38;5096916;28;20179;-90
2022/03/17 01:20:36;;;;;;;21.17;11.93;;;;;;;8.82;74.75;99845.75;5113681;28;20183;-90
2022/03/17 01:23:03;;;;;;;25.27;11.70;;;;;;;8.76;75.81;99835.50;5095781;28;20233;-91
2022/03/17 01:25:28;;;;;;;24.67;11.40;;;;;;;8.82;75.05;99843.13;5095703;28;20192;-91
2022/03/17 01:27:54;;;;;;;24.97;11.73;;;;;;;8.88;75.31;99845.56;5114182;28;20169;-91
2022/03/17 01:30:19;;;;;;;22.57;11.13;;;;;;;8.94;74.75;99847.94;5113866;28;20649;-90
2022/03/17 01:32:45;;;;;;;27.93;11.87;;;;;;;8.99;74.85;99850.38;5095752;28;20171;-90
2022/03/17 01:35:11;;;;;;;25.03;11.10;;;;;;;9.07;74.65;99850.97;5096736;28;20177;-90
2022/03/17 01:37:37;;;;;;;19.67;10.37;;;;;;;9.02;74.70;99855.50;5113561;28;20609;-91
2022/03/17 01:40:03;;;;;;;23.57;11.63;;;;;;;9.08;74.98;99850.94;5095560;28;20208;-89
2022/03/17 01:42:29;;;;;;;28.63;11.43;;;;;;;9.15;74.44;99860.25;5113427;28;20649;-90
2022/03/17 01:44:55;;;;;;;24.27;11.53;;;;;;;9.20;74.83;99863.56;5113383;28;20214;-89
2022/03/17 01:47:27;;;;;;;28.17;12.83;;;;;;;9.26;74.48;99858.13;5113369;28;20167;-90
2022/03/17 01:49:58;;;;;;;27.33;12.40;;;;;;;9.30;74.26;99858.03;5095449;28;20592;-90
2022/03/17 01:52:24;;;;;;;22.37;11.90;;;;;;;9.32;74.59;99864.06;5113386;28;20245;-89
2022/03/17 01:54:50;;;;;;;28.97;12.07;;;;;;;9.35;73.94;99856.09;5113599;28;20171;-89
2022/03/17 01:57:17;;;;;;;28.80;13.97;;;;;;;9.37;74.08;99857.75;5113320;28;20183;-89
2022/03/17 01:59:42;;;;;;;27.87;12.97;;;;;;;9.37;74.34;99862.97;5113228;28;20172;-89
2022/03/17 02:02:10;;;;;;;25.67;12.07;;;;;;;9.41;73.86;99868.97;5095281;28;20249;-89
2022/03/17 02:04:36;;;;;;;24.60;12.33;;;;;;;9.43;73.50;99857.53;5113142;28;20191;-89
2022/03/17 02:07:05;;;;;;;28.73;12.27;;;;;;;9.43;73.59;99856.66;5113523;28;20172;-89
2022/03/17 02:09:31;;;;;;;24.10;11.50;;;;;;;9.43;73.38;99849.69;5113124;28;20168;-89
2022/03/17 02:14:53;;;;;;;26.50;11.43;;;;;;;9.48;73.23;99854.75;5117590;28;20163;-89
2022/03/17 02:17:18;;;;;;;28.70;12.93;;;;;;;9.50;73.41;99861.63;5117249;28;20179;-88
2022/03/17 02:19:45;;;;;;;24.50;12.03;;;;;;;9.47;73.38;99860.88;5117221;28;20174;-88
2022/03/17 02:22:13;;;;;;;23.00;11.20;;;;;;;9.48;73.41;99860.84;5116898;28;20187;-89
2022/03/17 02:27:33;;;;;;;28.10;10.13;;;;;;;9.63;73.16;99859.41;5117442;28;20173;-89
2022/03/17 02:29:59;;;;;;;28.43;12.83;;;;;;;9.61;72.76;99867.31;5098895;28;20326;-89
2022/03/17 02:32:25;;;;;;;23.63;11.60;;;;;;;9.63;72.88;99868.13;5117305;28;20218;-88
2022/03/17 02:34:51;;;;;;;30.90;11.67;;;;;;;9.59;72.85;99860.44;5116600;28;20277;-88
2022/03/17 02:37:18;;;;;;;29.93;13.13;;;;;;;9.62;73.09;99865.53;5116890;28;20600;-88
2022/03/17 02:39:44;;;;;;;25.80;10.27;;;;;;;9.66;73.02;99875.00;5116794;28;20186;-89
2022/03/17 02:42:10;;;;;;;24.60;10.73;;;;;;;9.67;72.51;99879.34;5116535;28;20173;-88
2022/03/17 02:44:37;;;;;;;28.90;12.17;;;;;;;9.64;72.80;99877.66;5116383;28;20205;-88
2022/03/17 02:47:04;;;;;;;23.13;12.57;;;;;;;9.58;72.17;99887.50;5116937;28;20534;-88
2022/03/17 02:49:29;;;;;;;26.77;12.50;;;;;;;9.62;72.46;99881.25;5116867;28;20252;-88
2022/03/17 02:51:55;;;;;;;29.40;12.77;;;;;;;9.59;72.32;99890.06;5116318;28;20613;-88
2022/03/17 02:54:21;;;;;;;29.07;12.93;;;;;;;9.62;71.74;99878.63;5116283;28;20532;-88
2022/03/17 02:56:46;;;;;;;30.80;13.60;;;;;;;9.54;72.36;99891.16;5116284;28;20198;-88
2022/03/17 02:59:11;;;;;;;27.97;11.73;;;;;;;9.49;71.90;99903.53;5116155;28;20183;-88
2022/03/17 03:01:37;;;;;;;28.53;13.70;;;;;;;9.48;72.21;99907.06;5116430;28;20165;-88
2022/03/17 03:04:02;;;;;;;46.23;19.20;;;;;;;9.50;72.23;99902.63;5116013;28;20199;-88
2022/03/17 03:06:28;;;;;;;33.37;15.57;;;;;;;9.55;72.53;99908.56;5116290;28;20199;-88
2022/03/17 03:08:53;;;;;;;35.83;17.00;;;;;;;9.55;71.81;99904.19;5116219;28;20182;-88
2022/03/17 03:11:19;;;;;;;30.27;14.27;;;;;;;9.54;71.97;99901.63;5115849;28;20171;-88
2022/03/17 03:13:44;;;;;;;34.63;13.33;;;;;;;9.48;72.00;99910.56;5115875;28;20167;-89
2022/03/17 03:16:13;;;;;;;25.07;11.50;;;;;;;9.51;71.64;99901.72;5115909;28;20168;-88
2022/03/17 03:18:39;;;;;;;25.70;12.07;;;;;;;9.45;72.36;99915.88;5115822;28;20249;-88
2022/03/17 03:21:06;;;;;;;25.30;12.37;;;;;;;9.46;71.95;99914.97;5116311;28;20183;-88
2022/03/17 03:23:32;;;;;;;26.37;10.13;;;;;;;9.43;72.06;99909.00;5115418;28;20261;-88
2022/03/17 03:25:57;;;;;;;26.83;11.97;;;;;;;9.48;72.14;99912.31;5115622;28;20170;-89
2022/03/17 03:28:23;;;;;;;26.67;10.67;;;;;;;9.45;72.23;99907.19;5115887;28;20318;-89
2022/03/17 03:30:50;;;;;;;24.43;11.10;;;;;;;9.43;71.88;99912.47;5097607;28;20216;-88
2022/03/17 03:33:16;;;;;;;22.40;9.97;;;;;;;9.37;72.10;99914.44;5115513;28;20160;-89
2022/03/17 03:38:25;;;;;;;24.63;11.53;;;;;;;9.22;72.97;99923.69;5115731;28;20221;-89
2022/03/17 03:40:51;;;;;;;31.00;12.43;;;;;;;9.19;73.28;99922.03;5115353;28;20583;-89
2022/03/17 03:43:16;;;;;;;29.37;13.73;;;;;;;9.19;73.40;99931.66;5115215;28;20204;-89
2022/03/17 03:45:42;;;;;;;32.53;12.33;;;;;;;8.97;73.72;99941.09;5115525;28;20170;-89
2022/03/17 03:48:07;;;;;;;25.53;13.30;;;;;;;8.92;74.25;99943.00;5115235;28;20178;-89
2022/03/17 03:50:33;;;;;;;26.27;11.90;;;;;;;8.96;74.41;99950.69;5115440;28;20179;-89
2022/03/17 03:52:58;;;;;;;27.93;10.60;;;;;;;8.87;74.59;99950.16;5097232;28;20167;-89
2022/03/17 03:55:24;;;;;;;20.07;8.97;;;;;;;8.89;74.59;99957.03;5115032;28;20178;-89
2022/03/17 03:57:51;;;;;;;24.07;12.10;;;;;;;8.91;75.06;99960.47;5115317;28;20178;-89
2022/03/17 04:02:55;;;;;;;24.33;10.53;;;;;;;8.94;74.31;99972.56;5114887;28;20211;-89
2022/03/17 04:05:24;;;;;;;21.50;10.67;;;;;;;8.95;74.57;99975.16;5115179;28;20176;-89
2022/03/17 04:07:51;;;;;;;27.23;12.33;;;;;;;9.00;74.97;99978.47;5114791;28;20690;-89
2022/03/17 04:10:16;;;;;;;24.83;12.27;;;;;;;9.01;74.43;99976.72;5114829;28;20204;-89
2022/03/17 04:12:42;;;;;;;34.87;11.23;;;;;;;9.06;74.50;99982.66;5114597;28;20240;-88
2022/03/17 04:15:08;;;;;;;19.40;10.73;;;;;;;9.11;74.55;99985.97;5114669;28;20172;-89
2022/03/17 04:17:33;;;;;;;26.47;10.10;;;;;;;9.13;74.45;99992.84;5114872;28;20175;-89
2022/03/17 04:19:59;;;;;;;22.90;10.70;;;;;;;9.12;73.78;99993.75;5114557;28;20186;-89
2022/03/17 04:22:24;;;;;;;28.70;11.70;;;;;;;9.19;73.83;100000.50;5114696;28;20282;-89
2022/03/17 04:24:50;;;;;;;24.13;11.03;;;;;;;9.21;74.04;100008.28;5114472;28;20237;-89
2022/03/17 04:27:15;;;;;;;20.27;10.50;;;;;;;9.26;73.13;100012.47;5096522;28;20187;-89
2022/03/17 04:29:41;;;;;;;26.33;11.13;;;;;;;9.22;73.58;100010.84;5114387;28;20195;-89
2022/03/17 04:32:07;;;;;;;22.33;10.40;;;;;;;9.08;73.95;100014.84;5114396;28;20233;-89
2022/03/17 04:34:33;;;;;;;30.73;14.07;;;;;;;9.12;74.33;100014.69;5114044;28;20168;-88
2022/03/17 04:36:58;;;;;;;31.20;12.33;;;;;;;9.12;73.94;100025.13;5114264;28;20175;-89
2022/03/17 04:39:24;;;;;;;26.27;11.33;;;;;;;9.15;74.66;100025.03;5114223;28;20169;-89
2022/03/17 04:41:50;;;;;;;19.57;10.53;;;;;;;9.21;74.04;100030.09;5114493;28;20697;-89
2022/03/17 04:44:16;;;;;;;26.87;12.10;;;;;;;9.24;73.73;100035.22;5114140;28;20199;-89
2022/03/17 04:46:41;;;;;;;22.43;11.27;;;;;;;9.28;73.49;100042.03;5114383;28;20183;-89
2022/03/17 04:49:08;;;;;;;25.93;11.97;;;;;;;9.32;73.48;100041.94;5114335;28;20226;-89
2022/03/17 04:51:34;;;;;;;21.03;10.83;;;;;;;9.36;73.84;100048.78;5114029;28;20171;-89
2022/03/17 04:54:00;;;;;;;23.30;10.33;;;;;;;9.38;72.91;100054.84;5113988;28;20248;-89
2022/03/17 04:56:25;;;;;;;23.17;9.10;;;;;;;9.39;73.30;100051.28;5113944;28;20163;-89
2022/03/17 04:58:51;;;;;;;27.43;13.30;;;;;;;9.37;73.09;100056.59;5114202;28;20170;-90
2022/03/17 05:01:17;;;;;;;19.40;10.07;;;;;;;9.37;73.83;100051.38;5095892;28;20177;-88
2022/03/17 05:03:43;;;;;;;23.13;11.50;;;;;;;9.42;73.30;100054.69;5114067;28;20216;-89
2022/03/17 05:06:13;;;;;;;23.43;9.93;;;;;;;9.48;72.87;100064.09;5113873;28;20641;-89
2022/03/17 05:08:39;;;;;;;25.60;11.30;;;;;;;9.51;72.93;100064.81;5113997;28;20349;-89
2022/03/17 05:11:07;;;;;;;20.20;10.60;;;;;;;9.51;72.58;100059.59;5095843;28;20167;-89
2022/03/17 05:13:34;;;;;;;18.20;10.00;;;;;;;9.48;72.61;100067.56;5113540;28;20226;-89
2022/03/17 05:15:59;;;;;;;17.43;8.97;;;;;;;9.49;72.12;100066.63;5113939;28;20176;-89
2022/03/17 05:18:25;;;;;;;20.57;10.10;;;;;;;9.48;72.07;100066.72;5095796;28;20174;-89
2022/03/17 05:20:51;;;;;;;21.83;10.10;;;;;;;9.46;72.38;100077.22;5113623;28;20172;-89
2022/03/17 05:23:18;;;;;;;21.17;8.20;;;;;;;9.41;72.19;100083.53;5113522;28;20184;-89
2022/03/17 05:25:46;;;;;;;21.40;9.40;;;;;;;9.36;72.11;100082.78;5113886;28;20174;-89
2022/03/17 05:28:12;;;;;;;25.33;8.97;;;;;;;9.33;72.84;100081.13;5095665;28;20199;-89
2022/03/17 05:30:38;;;;;;;22.03;10.17;;;;;;;9.28;72.90;100073.44;5113841;28;20674;-89
2022/03/17 05:33:05;;;;;;;18.13;9.53;;;;;;;9.28;72.84;100080.44;5113495;28;20698;-89
2022/03/17 05:35:31;;;;;;;20.17;11.13;;;;;;;9.22;72.79;100081.47;5113475;28;20240;-89
2022/03/17 05:37:57;;;;;;;18.57;10.20;;;;;;;9.16;73.14;100088.69;5113512;28;20172;-90
2022/03/17 05:40:23;;;;;;;20.87;10.60;;;;;;;9.14;72.98;100080.03;5113470;28;20169;-89
2022/03/17 05:42:53;;;;;;;23.17;10.90;;;;;;;9.13;73.22;100081.78;5113581;28;20257;-89
2022/03/17 05:45:20;;;;;;;22.73;10.10;;;;;;;9.01;72.83;100084.81;5114476;28;20217;-90
2022/03/17 05:47:50;;;;;;;18.30;9.03;;;;;;;9.00;73.28;100093.53;5117534;28;20255;-89
2022/03/17 05:50:20;;;;;;;19.13;9.17;;;;;;;9.04;73.18;100100.38;5117536;28;20177;-89
2022/03/17 05:52:46;;;;;;;23.97;10.40;;;;;;;9.07;73.56;100109.88;5117475;28;20185;-89
2022/03/17 05:55:13;;;;;;;17.93;9.17;;;;;;;9.10;73.25;100109.78;5117394;28;20168;-89
2022/03/17 05:57:40;;;;;;;23.90;8.63;;;;;;;9.11;72.84;100121.97;5117380;28;20168;-90
2022/03/17 06:00:08;;;;;;;18.67;8.10;;;;;;;9.10;73.24;100126.34;5117305;28;20183;-90
2022/03/17 06:02:34;;;;;;;20.93;8.27;;;;;;;9.10;73.05;100122.84;5099259;28;20181;-89
2022/03/17 06:05:01;;;;;;;17.40;8.37;;;;;;;9.06;73.23;100126.50;5117532;28;20257;-89
2022/03/17 06:07:38;;;;;;;17.83;9.23;;;;;;;9.04;73.21;100133.53;5117462;28;20196;-90
2022/03/17 06:10:06;;;;;;;19.27;8.47;;;;;;;8.90;73.08;100144.41;5117456;28;20156;-89
2022/03/17 06:12:32;;;;;;;21.17;9.23;;;;;;;8.93;73.19;100146.06;5116863;28;20307;-89
2022/03/17 06:14:58;;;;;;;19.40;11.00;;;;;;;8.96;73.50;100144.19;5116990;28;20255;-89
2022/03/17 06:17:35;;;;;;;24.00;10.33;;;;;;;9.06;73.08;100145.66;5098981;28;20176;-89
2022/03/17 06:20:00;;;;;;;25.37;11.43;;;;;;;8.94;72.65;100150.38;5117274;28;20220;-89
2022/03/17 06:22:26;;;;;;;26.00;10.43;;;;;;;8.89;72.78;100153.13;5116836;28;20176;-89
2022/03/17 06:24:51;;;;;;;21.57;9.03;;;;;;;8.82;72.76;100167.28;5116890;28;20168;-89
2022/03/17 06:27:17;;;;;;;19.00;8.53;;;;;;;8.55;73.46;100175.91;5117071;28;20167;-90
2022/03/17 06:29:42;;;;;;;21.70;12.20;;;;;;;8.64;73.73;100178.28;5116770;28;20259;-90
2022/03/17 06:32:09;;;;;;;15.77;8.17;;;;;;;8.49;73.33;100181.31;5099023;28;20171;-88
2022/03/17 06:34:34;;;;;;;16.83;9.53;;;;;;;8.54;73.46;100184.66;5098663;28;20207;-90
2022/03/17 06:37:00;;;;;;;22.87;10.03;;;;;;;8.59;73.87;100190.63;5116651;28;20264;-90
2022/03/17 06:39:25;;;;;;;23.77;10.90;;;;;;;8.53;73.69;100185.56;5116924;28;20168;-89
2022/03/17 06:41:51;;;;;;;26.73;12.67;;;;;;;8.47;73.49;100183.09;5116550;28;20172;-89
2022/03/17 06:44:16;;;;;;;22.20;10.47;;;;;;;8.42;73.40;100187.59;5116403;28;20621;-89
2022/03/17 06:46:42;;;;;;;33.10;13.23;;;;;;;8.50;72.92;100190.84;5116433;28;20183;-89
2022/03/17 06:49:07;;;;;;;29.47;13.40;;;;;;;8.60;72.94;100194.94;5116380;28;20589;-89
2022/03/17 06:51:33;;;;;;;31.83;12.03;;;;;;;8.59;72.52;100195.84;5098339;28;20196;-89
2022/03/17 06:53:58;;;;;;;18.27;10.37;;;;;;;8.63;72.45;100195.72;5116248;28;20233;-89
2022/03/17 06:56:24;;;;;;;23.30;10.80;;;;;;;8.46;71.74;100195.31;5116105;28;20182;-89
2022/03/17 06:58:49;;;;;;;24.47;10.67;;;;;;;8.58;72.44;100204.56;5115726;28;20199;-89
2022/03/17 07:01:15;;;;;;;26.37;12.10;;;;;;;8.62;71.70;100212.28;5116129;28;20171;-89
2022/03/17 07:03:40;;;;;;;29.00;13.93;;;;;;;8.68;71.30;100213.00;5116261;28;20252;-89
2022/03/17 07:06:06;;;;;;;23.73;11.63;;;;;;;8.59;71.06;100216.75;5116083;28;20605;-89
2022/03/17 07:08:31;;;;;;;30.53;12.20;;;;;;;8.65;71.03;100220.03;5097995;28;20176;-88
2022/03/17 07:10:57;;;;;;;34.03;13.17;;;;;;;8.85;71.62;100211.66;5115917;28;20171;-89
2022/03/17 07:13:22;;;;;;;29.03;14.23;;;;;;;8.91;71.52;100219.31;5116558;28;20190;-89
2022/03/17 07:15:48;;;;;;;29.60;12.67;;;;;;;8.94;70.35;100229.69;5115854;28;20176;-88
2022/03/17 07:18:14;;;;;;;37.13;16.03;;;;;;;9.01;69.64;100233.00;5116049;28;20164;-89
2022/03/17 07:20:40;;;;;;;27.70;11.60;;;;;;;8.98;69.51;100239.16;5097774;28;20709;-88
2022/03/17 07:23:06;;;;;;;36.33;12.90;;;;;;;9.12;69.28;100249.22;5097627;28;20232;-88
2022/03/17 07:25:31;;;;;;;36.07;13.10;;;;;;;9.16;69.24;100241.25;5098097;28;20228;-89
2022/03/17 07:27:58;;;;;;;25.57;13.77;;;;;;;9.24;68.58;100244.50;5115689;28;20183;-90
2022/03/17 07:30:24;;;;;;;34.20;13.67;;;;;;;9.24;69.80;100247.13;5097910;28;20650;-90
2022/03/17 07:32:52;;;;;;;31.87;13.90;;;;;;;9.33;68.01;100247.75;5115491;28;20176;-89
2022/03/17 07:35:18;;;;;;;23.53;11.40;;;;;;;9.38;68.76;100240.63;5115498;28;20253;-89
2022/03/17 07:37:45;;;;;;;27.77;12.13;;;;;;;9.37;68.08;100244.13;5097537;28;20185;-89
2022/03/17 07:40:12;;;;;;;25.33;12.27;;;;;;;9.37;68.73;100241.50;5115363;28;20518;-89
2022/03/17 07:42:38;;;;;;;24.80;11.43;;;;;;;9.32;68.82;100251.25;5115177;28;20181;-89
2022/03/17 07:45:04;;;;;;;26.17;11.57;;;;;;;9.30;68.89;100242.59;5115286;28;20176;-88
2022/03/17 07:47:32;;;;;;;23.40;10.83;;;;;;;9.28;69.17;100248.72;5115186;28;20395;-88
2022/03/17 07:49:59;;;;;;;30.60;11.63;;;;;;;9.17;69.72;100250.78;5115424;28;20172;-88
2022/03/17 07:52:24;;;;;;;22.80;11.53;;;;;;;9.35;69.95;100248.56;5115363;28;20191;-88
2022/03/17 07:54:50;;;;;;;26.37;10.47;;;;;;;9.39;69.51;100252.78;5115292;28;20265;-89
2022/03/17 07:57:15;;;;;;;22.27;11.47;;;;;;;9.21;69.00;100247.19;5115226;28;20646;-89
2022/03/17 07:59:42;;;;;;;24.07;11.10;;;;;;;9.34;69.23;100255.53;5115134;28;20171;-88
2022/03/17 08:02:07;;;;;;;27.87;11.80;;;;;;;9.50;68.74;100250.69;5114929;28;20173;-88
2022/03/17 08:04:33;;;;;;;28.20;11.00;;;;;;;9.57;68.80;100255.69;5115309;28;20217;-88
2022/03/17 08:07:00;;;;;;;23.07;10.50;;;;;;;9.54;68.30;100252.34;5115337;28;20715;-89
2022/03/17 08:09:27;;;;;;;21.37;9.97;;;;;;;9.47;68.40;100259.50;5114977;28;20248;-88
2022/03/17 08:11:53;;;;;;;21.60;11.03;;;;;;;9.43;66.84;100257.91;5115049;28;20272;-88
2022/03/17 08:14:19;;;;;;;20.73;9.67;;;;;;;9.61;67.41;100265.19;5114991;28;20200;-88
2022/03/17 08:16:44;;;;;;;27.63;11.03;;;;;;;9.77;67.02;100260.34;5114570;28;20229;-88
2022/03/17 08:19:13;;;;;;;25.70;11.37;;;;;;;9.83;66.91;100265.34;5096586;28;20536;-88
2022/03/17 08:21:40;;;;;;;26.20;10.57;;;;;;;9.85;66.64;100263.56;5096549;28;20183;-89
2022/03/17 08:24:06;;;;;;;26.53;11.47;;;;;;;9.98;66.43;100264.03;5114773;28;20220;-88
2022/03/17 08:26:32;;;;;;;27.07;10.93;;;;;;;9.96;65.83;100274.53;5114982;28;20174;-89
2022/03/17 08:28:58;;;;;;;29.17;11.17;;;;;;;9.92;65.40;100270.31;5114412;28;20178;-88
2022/03/17 08:31:24;;;;;;;25.17;10.13;;;;;;;9.70;65.84;100279.72;5096495;28;20208;-88
2022/03/17 08:33:50;;;;;;;17.40;9.70;;;;;;;9.60;67.27;100278.31;5114320;28;20264;-89
2022/03/17 08:36:16;;;;;;;21.10;8.83;;;;;;;9.43;66.24;100285.81;5114270;28;20526;-88
2022/03/17 08:38:44;;;;;;;21.47;9.77;;;;;;;9.52;65.79;100293.38;5114243;28;20558;-88
2022/03/17 08:41:10;;;;;;;24.43;10.73;;;;;;;9.50;66.17;100297.81;5114178;28;20181;-89
2022/03/17 08:43:35;;;;;;;22.87;8.80;;;;;;;9.03;67.05;100307.03;5096101;28;20207;-88
2022/03/17 08:51:28;;;;;;;17.87;7.53;;;;;;;9.26;66.62;100309.84;5114072;28;20305;-88
2022/03/17 08:53:56;;;;;;;20.23;9.47;;;;;;;9.41;65.55;100311.19;5096040;28;20251;-88
2022/03/17 08:56:21;;;;;;;20.97;9.30;;;;;;;9.40;65.99;100309.47;5095961;28;20178;-88
2022/03/17 08:58:47;;;;;;;17.67;6.83;;;;;;;9.25;66.14;100318.59;5113869;28;20543;-89
2022/03/17 09:01:12;;;;;;;21.60;8.80;;;;;;;9.46;65.98;100317.13;5114418;28;20193;-88
2022/03/17 09:03:38;;;;;;;16.43;8.40;;;;;;;9.74;66.13;100318.88;5114038;28;20544;-88
2022/03/17 09:06:04;;;;;;;19.30;9.07;;;;;;;9.84;67.64;100320.31;5113787;28;20178;-89
2022/03/17 09:08:29;;;;;;;17.10;8.30;;;;;;;9.77;64.73;100315.31;5114014;28;20506;-89
2022/03/17 09:10:56;;;;;;;19.17;7.23;;;;;;;9.50;64.45;100314.38;5113685;28;20176;-88
2022/03/17 09:13:25;;;;;;;20.93;8.53;;;;;;;9.56;65.17;100313.34;5113695;28;20188;-88
2022/03/17 09:15:51;;;;;;;21.20;8.93;;;;;;;9.69;64.16;100309.47;5113651;28;20174;-89
2022/03/17 09:18:16;;;;;;;16.10;6.97;;;;;;;9.84;64.01;100320.31;5113923;28;20251;-88
2022/03/17 09:20:42;;;;;;;17.67;8.13;;;;;;;10.02;64.10;100315.41;5113157;28;20660;-89
2022/03/17 09:23:08;;;;;;;15.00;7.37;;;;;;;10.25;64.71;100321.66;5113530;28;20664;-88
2022/03/17 09:25:34;;;;;;;14.87;7.80;;;;;;;10.42;63.37;100326.34;5113815;28;20252;-89
2022/03/17 09:28:00;;;;;;;16.17;7.27;;;;;;;10.12;63.58;100322.06;5113553;28;20283;-88
2022/03/17 09:30:26;;;;;;;16.33;7.47;;;;;;;10.05;62.22;100321.41;5113457;28;20168;-89
2022/03/17 09:32:54;;;;;;;11.97;6.93;;;;;;;10.26;62.42;100318.13;5095495;28;20185;-89
2022/03/17 09:35:21;;;;;;;11.30;6.67;;;;;;;10.46;62.79;100322.72;5095489;28;20719;-88
2022/03/17 09:37:47;;;;;;;15.33;6.80;;;;;;;10.37;61.98;100326.50;5113422;28;20171;-88
2022/03/17 09:40:13;;;;;;;17.80;6.67;;;;;;;10.40;62.75;100322.94;5113366;28;20186;-88
2022/03/17 09:42:39;;;;;;;17.10;7.30;;;;;;;10.06;63.23;100330.13;5113311;28;20178;-88
2022/03/17 09:45:09;;;;;;;16.80;7.93;;;;;;;10.16;63.80;100327.22;5113337;28;20172;-88
2022/03/17 09:47:40;;;;;;;19.50;9.27;;;;;;;10.34;63.56;100321.38;5113616;28;20621;-89
2022/03/17 09:50:08;;;;;;;17.53;7.50;;;;;;;10.54;62.91;100322.44;5113626;28;20168;-88
2022/03/17 09:52:44;;;;;;;12.10;5.93;;;;;;;10.63;61.10;100317.78;5113291;28;20206;-88
2022/03/17 09:55:10;;;;;;;14.80;5.50;;;;;;;10.63;60.47;100316.91;5113615;28;20204;-88
2022/03/17 09:57:38;;;;;;;11.10;4.60;;;;;;;10.36;61.38;100321.31;5113362;28;20218;-88
2022/03/17 10:00:04;;;;;;;10.20;4.93;;;;;;;10.57;61.46;100319.72;5095297;28;20175;-89
2022/03/17 10:02:30;;;;;;;9.50;4.87;;;;;;;10.27;61.51;100329.47;5113121;28;20171;-88
2022/03/17 10:04:56;;;;;;;9.37;4.53;;;;;;;10.42;61.35;100324.59;5095143;28;20199;-88
2022/03/17 10:07:22;;;;;;;12.70;4.67;;;;;;;10.15;60.94;100324.63;5095237;28;20175;-88
2022/03/17 10:09:49;;;;;;;8.23;3.80;;;;;;;10.07;62.14;100322.22;5113435;28;20696;-89
2022/03/17 10:12:17;;;;;;;9.90;4.57;;;;;;;10.19;62.33;100332.34;5113002;28;20191;-88
2022/03/17 10:14:45;;;;;;;6.00;2.87;;;;;;;10.25;63.13;100328.66;5095202;28;20167;-88
2022/03/17 10:17:34;;;;;;;11.73;3.97;;;;;;;9.99;63.58;100326.84;5113648;28;20168;-88
2022/03/17 10:20:25;;;;;;;5.77;2.73;;;;;;;9.76;64.20;100337.16;5113373;28;20159;-88
2022/03/17 10:22:53;;;;;;;7.37;3.97;;;;;;;9.69;64.05;100330.41;5113274;28;20539;-88
2022/03/17 10:25:21;;;;;;;7.67;4.10;;;;;;;9.72;62.23;100333.75;5113040;28;20179;-89
2022/03/17 10:27:51;;;;;;;9.87;5.03;;;;;;;9.67;62.76;100337.44;5112981;28;20190;-88
2022/03/17 10:30:27;;;;;;;8.07;3.30;;;;;;;9.66;62.33;100333.97;5112934;28;20175;-89
2022/03/17 10:32:58;;;;;;;5.80;2.93;;;;;;;9.16;63.08;100345.88;5097889;28;20504;-87
2022/03/17 10:35:25;;;;;;;13.30;3.60;;;;;;;9.28;63.18;100340.31;5116935;28;20168;-88
2022/03/17 10:37:51;;;;;;;7.53;4.03;;;;;;;9.20;64.01;100339.66;5116569;28;20248;-88
2022/03/17 10:40:16;;;;;;;6.13;3.43;;;;;;;9.07;64.50;100346.13;5116810;28;20213;-89
2022/03/17 10:42:42;;;;;;;9.80;3.93;;;;;;;9.19;64.79;100350.16;5116433;28;20251;-89
2022/03/17 10:45:08;;;;;;;4.20;2.57;;;;;;;9.19;62.74;100350.16;5117046;28;20175;-87
2022/03/17 10:47:37;;;;;;;10.43;3.73;;;;;;;9.33;62.10;100347.19;5116648;28;20616;-89
2022/03/17 10:50:16;;;;;;;3.87;2.37;;;;;;;9.52;60.82;100340.50;5116290;28;20276;-88
2022/03/17 10:53:00;;;;;;;5.97;2.63;;;;;;;9.90;61.49;100348.09;5116255;28;20174;-89
2022/03/17 10:55:27;;;;;;;7.57;2.97;;;;;;;9.72;60.51;100341.63;5116271;28;20569;-87
2022/03/17 10:58:11;;;;;;;11.17;3.20;;;;;;;9.48;59.76;100346.72;5098347;28;20214;-89
2022/03/17 11:00:47;;;;;;;5.20;2.73;;;;;;;9.44;60.50;100345.09;5098310;28;20179;-88
2022/03/17 11:03:13;;;;;;;3.70;1.93;;;;;;;9.08;61.97;100345.22;5098212;28;20182;-90
2022/03/17 11:05:39;;;;;;;7.40;3.03;;;;;;;9.06;62.96;100356.63;5116084;28;20624;-90
2022/03/17 11:08:06;;;;;;;2.67;1.63;;;;;;;9.06;63.86;100347.03;5116171;28;20218;-89
2022/03/17 11:10:32;;;;;;;4.17;1.60;;;;;;;9.15;62.33;100349.38;5116536;28;20173;-89
2022/03/17 11:13:04;;;;;;;3.67;2.20;;;;;;;9.43;61.78;100346.88;5116751;28;20180;-89
2022/03/17 11:15:31;;;;;;;3.30;2.03;;;;;;;9.47;62.06;100358.97;5116228;28;20233;-88
2022/03/17 11:18:04;;;;;;;4.63;2.00;;;;;;;9.70;62.18;100339.94;5116146;28;20182;-89
2022/03/17 11:20:30;;;;;;;4.77;1.17;;;;;;;9.49;63.16;100348.44;5116113;28;20171;-89
2022/03/17 11:23:15;;;;;;;4.60;1.53;;;;;;;9.21;64.22;100353.59;5115699;28;20178;-88
2022/03/17 11:25:45;;;;;;;2.10;1.20;;;;;;;8.65;67.03;100362.94;5097813;28;20174;-88
2022/03/17 11:28:11;;;;;;;2.27;1.10;;;;;;;8.61;67.93;100362.16;5115689;28;20164;-87
2022/03/17 11:30:46;;;;;;;3.37;1.60;;;;;;;8.63;66.84;100362.13;5097710;28;20168;-89
2022/03/17 11:33:45;;;;;;;2.33;1.47;;;;;;;8.61;67.51;100361.31;5115565;28;20240;-87
2022/03/17 11:36:10;;;;;;;4.10;0.80;;;;;;;8.76;67.41;100360.91;5115574;28;20181;-88
2022/03/17 11:38:38;;;;;;;2.53;1.00;;;;;;;8.61;67.95;100366.53;5115424;28;20564;-88